createdAt,value
2022-08-16T00:01:11.780Z,5.35
2022-08-16T00:03:41.127Z,4.93
2022-08-16T00:06:08.322Z,4.93
2022-08-16T00:08:37.683Z,5.13
2022-08-16T00:11:15.731Z,4.90
2022-08-16T00:14:08.634Z,5.40
2022-08-16T00:17:16.060Z,4.53
2022-08-16T00:19:46.900Z,5.03
2022-08-16T00:22:20.852Z,5.47
2022-08-16T00:24:54.354Z,5.55
2022-08-16T00:27:22.768Z,5.38
2022-08-16T00:30:01.141Z,5.63
2022-08-16T00:32:41.131Z,5.40
2022-08-16T00:35:15.543Z,5.38
2022-08-16T00:37:58.650Z,5.65
2022-08-16T00:40:36.564Z,5.40
2022-08-16T00:43:12.192Z,6.00
2022-08-16T00:45:58.531Z,5.53
2022-08-16T00:48:31.724Z,4.50
2022-08-16T00:51:08.188Z,5.53
2022-08-16T00:53:35.858Z,5.10
2022-08-16T00:56:08.174Z,5.50
2022-08-16T00:58:36.712Z,4.70
2022-08-16T01:01:08.156Z,5.20
2022-08-16T01:03:36.746Z,4.70
2022-08-16T01:06:39.540Z,4.50
2022-08-16T01:08:57.048Z,4.57
2022-08-16T01:13:57.795Z,5.45
2022-08-16T01:16:26.678Z,5.50
2022-08-16T01:19:01.082Z,4.93
2022-08-16T01:21:47.038Z,5.07
2022-08-16T01:24:51.687Z,5.03
2022-08-16T01:27:14.970Z,4.53
2022-08-16T01:29:58.445Z,4.70
2022-08-16T01:32:31.922Z,4.45
2022-08-16T01:35:17.017Z,4.30
2022-08-16T01:37:54.080Z,4.85
2022-08-16T01:40:27.142Z,4.82
2022-08-16T01:42:55.335Z,4.63
2022-08-16T01:45:22.952Z,4.65
2022-08-16T01:47:51.892Z,4.55
2022-08-16T01:50:43.473Z,4.93
2022-08-16T01:53:10.075Z,5.18
2022-08-16T01:55:57.965Z,5.10
2022-08-16T01:58:25.690Z,4.55
2022-08-16T02:00:52.466Z,4.90
2022-08-16T02:03:24.217Z,5.40
2022-08-16T02:05:52.256Z,5.07
2022-08-16T02:08:33.810Z,5.53
2022-08-16T02:11:05.389Z,5.13
2022-08-16T02:13:32.791Z,5.30
2022-08-16T02:16:00.116Z,4.85
2022-08-16T02:18:28.292Z,4.53
2022-08-16T02:20:54.997Z,4.82
2022-08-16T02:23:22.685Z,5.25
2022-08-16T02:25:51.747Z,5.18
2022-08-16T02:28:20.528Z,5.30
2022-08-16T02:30:51.726Z,5.10
2022-08-16T02:33:20.001Z,4.82
2022-08-16T02:35:55.183Z,5.35
2022-08-16T02:38:31.455Z,5.88
2022-08-16T02:41:00.893Z,5.13
2022-08-16T02:43:33.250Z,4.80
2022-08-16T02:46:03.145Z,5.85
2022-08-16T02:48:35.992Z,5.40
2022-08-16T02:51:11.354Z,5.47
2022-08-16T02:53:43.100Z,5.80
2022-08-16T02:56:12.215Z,5.55
2022-08-16T02:58:41.985Z,6.00
2022-08-16T03:01:24.014Z,6.13
2022-08-16T03:04:29.214Z,5.28
2022-08-16T03:06:43.296Z,5.80
2022-08-16T03:09:21.620Z,5.20
2022-08-16T03:11:52.560Z,5.88
2022-08-16T03:14:21.253Z,6.35
2022-08-16T03:16:59.332Z,6.30
2022-08-16T03:19:48.119Z,5.63
2022-08-16T03:22:28.000Z,6.20
2022-08-16T03:25:00.918Z,6.10
2022-08-16T03:27:32.903Z,6.45
2022-08-16T03:30:16.469Z,6.50
2022-08-16T03:32:51.353Z,6.38
2022-08-16T03:35:21.644Z,6.32
2022-08-16T03:38:03.248Z,6.88
2022-08-16T03:40:37.825Z,6.65
2022-08-16T03:43:20.118Z,7.25
2022-08-16T03:45:52.989Z,7.20
2022-08-16T03:48:37.066Z,7.03
2022-08-16T03:51:13.982Z,7.45
2022-08-16T03:54:00.785Z,7.03
2022-08-16T03:56:30.395Z,8.23
2022-08-16T03:58:58.774Z,7.25
2022-08-16T04:03:57.217Z,7.60
2022-08-16T04:06:23.908Z,7.75
2022-08-16T04:08:51.350Z,7.70
2022-08-16T04:11:18.137Z,7.28
2022-08-16T04:14:00.236Z,6.93
2022-08-16T04:16:37.723Z,6.60
2022-08-16T04:19:36.716Z,6.88
2022-08-16T04:22:12.622Z,7.20
2022-08-16T04:24:54.287Z,6.85
2022-08-16T04:27:28.777Z,6.90
2022-08-16T04:30:02.834Z,6.88
2022-08-16T04:32:33.043Z,6.35
2022-08-16T04:35:08.434Z,6.90
2022-08-16T04:37:42.047Z,6.88
2022-08-16T04:40:21.539Z,7.03
2022-08-16T04:42:50.275Z,6.63
2022-08-16T04:45:18.036Z,7.25
2022-08-16T04:48:05.986Z,7.82
2022-08-16T04:50:43.511Z,7.07
2022-08-16T04:53:15.834Z,7.05
2022-08-16T04:55:44.786Z,7.07
2022-08-16T04:58:44.009Z,7.05
2022-08-16T05:01:01.010Z,6.50
2022-08-16T05:03:30.778Z,7.50
2022-08-16T05:06:02.239Z,6.43
2022-08-16T05:08:32.252Z,6.72
2022-08-16T05:11:12.376Z,7.00
2022-08-16T05:13:42.879Z,6.80
2022-08-16T05:16:27.530Z,7.13
2022-08-16T05:19:11.361Z,6.82
2022-08-16T05:21:39.609Z,7.25
2022-08-16T05:24:09.461Z,6.93
2022-08-16T05:26:43.076Z,7.03
2022-08-16T05:29:16.557Z,6.88
2022-08-16T05:31:58.588Z,6.55
2022-08-16T05:34:25.245Z,6.63
2022-08-16T05:36:57.164Z,7.05
2022-08-16T05:39:28.260Z,6.30
2022-08-16T05:41:55.319Z,6.57
2022-08-16T05:44:25.032Z,5.95
2022-08-16T05:47:00.230Z,6.55
2022-08-16T05:49:36.970Z,6.20
2022-08-16T05:52:13.340Z,5.65
2022-08-16T05:54:47.156Z,6.70
2022-08-16T05:57:17.367Z,5.93
2022-08-16T05:59:47.205Z,5.90
2022-08-16T06:02:15.693Z,6.10
2022-08-16T06:04:45.765Z,5.97
2022-08-16T06:07:24.848Z,6.75
2022-08-16T06:10:05.420Z,6.18
2022-08-16T06:12:34.673Z,5.90
2022-08-16T06:15:10.422Z,6.60
2022-08-16T06:17:43.164Z,6.50
2022-08-16T06:20:18.206Z,6.38
2022-08-16T06:22:57.417Z,5.82
2022-08-16T06:25:36.158Z,5.82
2022-08-16T06:28:09.537Z,5.97
2022-08-16T06:30:44.178Z,5.53
2022-08-16T06:33:22.052Z,5.80
2022-08-16T06:35:55.083Z,4.82
2022-08-16T06:38:33.947Z,5.85
2022-08-16T06:41:13.644Z,5.72
2022-08-16T06:43:41.950Z,5.55
2022-08-16T06:46:32.027Z,5.65
2022-08-16T06:49:12.336Z,5.10
2022-08-16T06:51:46.672Z,5.47
2022-08-16T06:54:19.506Z,6.10
2022-08-16T06:56:46.421Z,6.63
2022-08-16T06:59:14.739Z,5.90
2022-08-16T07:01:54.823Z,5.95
2022-08-16T07:04:32.458Z,5.78
2022-08-16T07:07:05.514Z,6.45
2022-08-16T07:09:32.708Z,6.47
2022-08-16T07:12:03.186Z,6.43
2022-08-16T07:14:33.359Z,5.97
2022-08-16T07:17:01.385Z,6.45
2022-08-16T07:20:01.829Z,5.35
2022-08-16T07:22:37.996Z,6.60
2022-08-16T07:25:16.760Z,6.47
2022-08-16T07:27:43.844Z,7.00
2022-08-16T07:30:39.320Z,7.20
2022-08-16T07:33:05.679Z,6.25
2022-08-16T07:35:34.402Z,6.18
2022-08-16T07:38:01.078Z,6.10
2022-08-16T07:40:59.553Z,7.20
2022-08-16T07:43:23.439Z,7.60
2022-08-16T07:45:59.026Z,7.22
2022-08-16T07:48:28.679Z,7.30
2022-08-16T07:50:59.596Z,6.60
2022-08-16T07:53:31.201Z,7.47
2022-08-16T07:56:00.337Z,7.75
2022-08-16T07:58:36.203Z,7.07
2022-08-16T08:01:10.699Z,6.95
2022-08-16T08:03:49.328Z,8.38
2022-08-16T08:06:24.974Z,7.60
2022-08-16T08:08:56.964Z,7.55
2022-08-16T08:11:24.725Z,5.78
2022-08-16T08:13:56.683Z,5.45
2022-08-16T08:16:30.038Z,7.18
2022-08-16T08:19:01.242Z,6.38
2022-08-16T08:21:59.176Z,6.22
2022-08-16T08:24:16.901Z,6.43
2022-08-16T08:26:44.468Z,6.30
2022-08-16T08:29:22.515Z,5.90
2022-08-16T08:31:49.799Z,6.28
2022-08-16T08:34:18.737Z,6.38
2022-08-16T08:36:45.601Z,6.40
2022-08-16T08:39:28.116Z,6.68
2022-08-16T08:41:55.085Z,5.95
2022-08-16T08:44:29.854Z,6.07
2022-08-16T08:47:09.367Z,6.03
2022-08-16T08:49:46.258Z,7.25
2022-08-16T08:52:35.249Z,6.47
2022-08-16T08:55:05.159Z,6.70
2022-08-16T08:57:40.945Z,6.45
2022-08-16T09:00:30.148Z,6.10
2022-08-16T09:02:59.430Z,6.38
2022-08-16T09:05:35.867Z,5.43
2022-08-16T09:08:07.269Z,6.07
2022-08-16T09:11:02.030Z,5.60
2022-08-16T09:13:33.056Z,5.38
2022-08-16T09:16:00.293Z,5.40
2022-08-16T09:18:35.421Z,6.70
2022-08-16T09:21:03.660Z,5.90
2022-08-16T09:23:36.451Z,5.45
2022-08-16T09:26:42.958Z,5.03
2022-08-16T09:29:15.089Z,6.07
2022-08-16T09:31:41.480Z,5.57
2022-08-16T09:34:09.139Z,5.78
2022-08-16T09:36:37.156Z,5.53
2022-08-16T09:39:16.321Z,6.25
2022-08-16T09:41:53.672Z,5.70
2022-08-16T09:45:12.989Z,5.82
2022-08-16T09:47:10.266Z,5.03
2022-08-16T09:49:37.597Z,5.80
2022-08-16T09:52:09.546Z,4.97
2022-08-16T09:54:37.365Z,4.82
2022-08-16T09:57:04.394Z,5.60
2022-08-16T09:59:31.341Z,4.50
2022-08-16T10:02:22.993Z,4.32
2022-08-16T10:04:54.452Z,5.00
2022-08-16T10:07:22.421Z,4.63
2022-08-16T10:09:55.371Z,4.50
2022-08-16T10:12:44.087Z,5.00
2022-08-16T10:15:15.938Z,4.47
2022-08-16T10:18:00.171Z,4.50
2022-08-16T10:20:30.405Z,4.25
2022-08-16T10:23:05.532Z,4.70
2022-08-16T10:27:16.668Z,4.57
2022-08-16T10:28:28.672Z,4.60
2022-08-16T10:30:58.756Z,4.82
2022-08-16T10:33:27.143Z,4.30
2022-08-16T10:35:57.677Z,4.47
2022-08-16T10:38:27.859Z,4.78
2022-08-16T10:40:54.872Z,4.28
2022-08-16T10:43:21.437Z,4.63
2022-08-16T10:46:00.555Z,4.43
2022-08-16T10:48:28.684Z,4.10
2022-08-16T10:50:59.366Z,3.72
2022-08-16T10:53:32.469Z,4.35
2022-08-16T10:56:01.847Z,4.25
2022-08-16T10:58:34.106Z,4.25
2022-08-16T11:03:57.143Z,4.13
2022-08-16T11:06:27.955Z,4.03
2022-08-16T11:14:31.947Z,4.00
2022-08-16T11:17:02.213Z,4.50
2022-08-16T11:19:30.363Z,3.83
2022-08-16T11:22:23.185Z,3.92
2022-08-16T11:24:44.737Z,3.17
2022-08-16T11:27:19.848Z,4.07
2022-08-16T11:29:50.026Z,3.95
2022-08-16T11:32:20.274Z,3.72
2022-08-16T11:35:13.549Z,3.78
2022-08-16T11:40:44.445Z,3.53
2022-08-16T11:43:12.451Z,3.60
2022-08-16T11:45:38.998Z,3.72
2022-08-16T11:48:09.262Z,3.70
2022-08-16T11:50:36.013Z,3.60
2022-08-16T11:53:05.095Z,3.33
2022-08-16T11:55:32.813Z,3.30
2022-08-16T11:58:00.355Z,3.80
2022-08-16T12:00:33.651Z,3.20
2022-08-16T12:03:15.748Z,4.22
2022-08-16T12:05:44.511Z,3.28
2022-08-16T12:08:12.562Z,3.80
2022-08-16T12:10:40.119Z,3.67
2022-08-16T12:13:07.615Z,4.40
2022-08-16T12:15:38.096Z,3.60
2022-08-16T12:18:05.141Z,3.83
2022-08-16T12:20:36.925Z,4.10
2022-08-16T12:23:04.719Z,4.03
2022-08-16T12:25:32.862Z,3.85
2022-08-16T12:28:02.193Z,3.83
2022-08-16T12:30:36.391Z,3.90
2022-08-16T12:33:07.547Z,3.95
2022-08-16T12:35:36.853Z,4.30
2022-08-16T12:38:38.322Z,4.10
2022-08-16T12:40:52.857Z,3.85
2022-08-16T12:43:23.522Z,4.47
2022-08-16T12:45:52.857Z,3.97
2022-08-16T12:48:42.466Z,4.00
2022-08-16T12:51:20.079Z,4.38
2022-08-16T12:53:51.595Z,4.32
2022-08-16T12:56:20.041Z,3.78
2022-08-16T12:58:51.979Z,4.05
2022-08-16T13:01:22.794Z,3.67
2022-08-16T13:03:59.251Z,3.80
2022-08-16T13:06:33.503Z,4.30
2022-08-16T13:09:16.815Z,3.92
2022-08-16T13:11:55.206Z,4.03
2022-08-16T13:14:31.317Z,4.10
2022-08-16T13:17:02.008Z,3.70
2022-08-16T13:19:55.955Z,3.63
2022-08-16T13:22:18.585Z,3.30
2022-08-16T13:24:46.414Z,2.97
2022-08-16T13:27:13.300Z,3.55
2022-08-16T13:29:43.706Z,3.38
2022-08-16T13:32:10.884Z,3.50
2022-08-16T13:34:57.483Z,3.42
2022-08-16T13:37:24.089Z,3.88
2022-08-16T13:39:52.710Z,3.40
2022-08-16T13:42:20.420Z,3.60
2022-08-16T13:44:55.927Z,3.97
2022-08-16T13:47:25.499Z,3.90
2022-08-16T13:49:56.996Z,4.28
2022-08-16T13:52:24.987Z,4.15
2022-08-16T13:54:51.723Z,3.92
2022-08-16T13:57:18.372Z,3.90
2022-08-16T13:59:47.008Z,3.80
2022-08-16T14:02:17.129Z,3.88
2022-08-16T14:04:44.469Z,4.00
2022-08-16T14:07:19.725Z,4.00
2022-08-16T14:09:51.427Z,3.70
2022-08-16T14:12:25.812Z,3.63
2022-08-16T14:14:56.403Z,4.32
2022-08-16T14:17:23.796Z,4.28
2022-08-16T14:19:50.572Z,4.05
2022-08-16T14:22:30.553Z,3.90
2022-08-16T14:24:59.641Z,4.20
2022-08-16T14:27:28.538Z,3.80
2022-08-16T14:29:57.810Z,4.03
2022-08-16T14:32:33.189Z,3.95
2022-08-16T14:35:04.250Z,3.95
2022-08-16T14:37:31.887Z,4.27
2022-08-16T14:39:59.388Z,3.90
2022-08-16T14:42:26.187Z,4.20
2022-08-16T14:44:54.049Z,3.80
2022-08-16T14:47:20.911Z,4.40
2022-08-16T14:49:47.660Z,3.95
2022-08-16T14:52:44.531Z,4.20
2022-08-16T14:55:06.016Z,4.30
2022-08-16T14:57:33.354Z,4.25
2022-08-16T15:00:05.548Z,4.07
2022-08-16T15:02:34.441Z,3.67
2022-08-16T15:05:04.281Z,4.07
2022-08-16T15:07:34.961Z,3.80
2022-08-16T15:10:02.431Z,3.70
2022-08-16T15:12:33.478Z,3.50
2022-08-16T15:15:04.418Z,3.85
2022-08-16T15:17:39.442Z,4.20
2022-08-16T15:20:10.001Z,3.60
2022-08-16T15:22:47.173Z,3.85
2022-08-16T15:25:19.582Z,4.00
2022-08-16T15:27:54.767Z,3.58
2022-08-16T15:30:57.609Z,3.45
2022-08-16T15:33:21.394Z,3.63
2022-08-16T15:35:50.521Z,3.65
2022-08-16T15:38:55.206Z,3.63
2022-08-16T15:41:03.934Z,3.90
2022-08-16T15:43:39.073Z,3.42
2022-08-16T15:46:35.560Z,3.80
2022-08-16T15:49:09.649Z,3.58
2022-08-16T15:51:38.634Z,3.58
2022-08-16T15:54:21.073Z,3.78
2022-08-16T15:56:54.947Z,3.53
2022-08-16T15:59:27.008Z,3.40
2022-08-16T16:01:55.831Z,3.63
2022-08-16T16:04:25.627Z,3.58
2022-08-16T16:06:54.892Z,3.88
2022-08-16T16:09:34.752Z,3.60
2022-08-16T16:12:16.401Z,3.92
2022-08-16T16:14:52.124Z,3.40
2022-08-16T16:17:18.740Z,3.42
2022-08-16T16:19:45.586Z,3.22
2022-08-16T16:24:44.406Z,3.60
2022-08-16T16:27:10.917Z,3.58
2022-08-16T16:29:40.327Z,4.05
2022-08-16T16:32:08.403Z,3.80
2022-08-16T16:34:35.284Z,3.58
2022-08-16T16:37:02.551Z,3.72
2022-08-16T16:39:29.166Z,3.70
2022-08-16T16:41:59.813Z,3.83
2022-08-16T16:44:31.952Z,3.60
2022-08-16T16:47:02.734Z,3.83
2022-08-16T16:49:29.481Z,3.70
2022-08-16T16:52:00.007Z,3.63
2022-08-16T16:54:35.404Z,4.13
2022-08-16T16:57:02.217Z,3.83
2022-08-16T16:59:29.083Z,3.55
2022-08-16T17:02:39.499Z,3.85
2022-08-16T17:04:45.816Z,3.78
2022-08-16T17:07:14.032Z,3.80
2022-08-16T17:09:41.393Z,3.55
2022-08-16T17:12:10.076Z,3.72
2022-08-16T17:14:42.608Z,3.78
2022-08-16T17:17:11.507Z,3.78
2022-08-16T17:19:41.544Z,4.10
2022-08-16T17:22:19.639Z,3.90
2022-08-16T17:24:50.825Z,3.92
2022-08-16T17:27:32.396Z,4.15
2022-08-16T17:30:02.530Z,5.32
2022-08-16T17:32:47.457Z,4.75
2022-08-16T17:35:18.376Z,3.95
2022-08-16T17:37:51.192Z,4.10
2022-08-16T17:40:41.055Z,3.75
2022-08-16T17:43:10.085Z,4.18
2022-08-16T17:45:38.287Z,4.15
2022-08-16T17:48:05.412Z,4.50
2022-08-16T17:50:31.962Z,4.40
2022-08-16T17:52:58.909Z,4.38
2022-08-16T17:55:28.087Z,4.55
2022-08-16T17:57:54.901Z,3.85
2022-08-16T18:00:22.957Z,4.40
2022-08-16T18:02:50.727Z,4.28
2022-08-16T18:05:18.600Z,4.40
2022-08-16T18:07:45.448Z,4.10
2022-08-16T18:10:12.372Z,4.60
2022-08-16T18:12:50.808Z,4.20
2022-08-16T18:15:23.832Z,4.68
2022-08-16T18:17:53.455Z,4.15
2022-08-16T18:20:40.994Z,4.20
2022-08-16T18:23:14.917Z,4.35
2022-08-16T18:25:47.394Z,4.00
2022-08-16T18:28:14.518Z,5.05
2022-08-16T18:30:45.774Z,4.40
2022-08-16T18:33:17.165Z,4.70
2022-08-16T18:35:44.540Z,4.25
2022-08-16T18:38:12.400Z,4.30
2022-08-16T18:40:40.349Z,3.67
2022-08-16T18:43:13.287Z,4.50
2022-08-16T18:45:41.320Z,4.43
2022-08-16T18:48:08.967Z,4.18
2022-08-16T18:51:03.256Z,4.72
2022-08-16T18:53:25.917Z,3.90
2022-08-16T18:55:57.079Z,4.32
2022-08-16T19:00:56.596Z,4.70
2022-08-16T19:03:33.536Z,4.90
2022-08-16T19:06:11.934Z,4.82
2022-08-16T19:08:40.375Z,4.60
2022-08-16T19:11:10.109Z,4.15
2022-08-16T19:13:37.725Z,3.95
2022-08-16T19:16:04.602Z,4.32
2022-08-16T19:18:36.398Z,4.82
2022-08-16T19:21:04.503Z,4.20
2022-08-16T19:23:34.271Z,4.50
2022-08-16T19:26:24.535Z,4.20
2022-08-16T19:28:58.337Z,4.60
2022-08-16T19:31:31.793Z,4.38
2022-08-16T19:33:58.948Z,4.30
2022-08-16T19:36:33.781Z,4.70
2022-08-16T19:39:08.908Z,4.57
2022-08-16T19:41:38.539Z,4.55
2022-08-16T19:44:05.833Z,4.20
2022-08-16T19:46:32.682Z,4.20
2022-08-16T19:48:59.413Z,4.75
2022-08-16T19:51:26.123Z,4.85
2022-08-16T19:53:52.718Z,4.18
2022-08-16T19:56:22.983Z,4.53
2022-08-16T19:59:16.329Z,4.65
2022-08-16T20:01:41.706Z,5.05
2022-08-16T20:04:11.748Z,4.18
2022-08-16T20:06:38.996Z,4.38
2022-08-16T20:09:07.080Z,4.75
2022-08-16T20:11:35.094Z,4.80
2022-08-16T20:14:02.184Z,5.35
2022-08-16T20:16:28.722Z,4.60
2022-08-16T20:18:55.228Z,5.10
2022-08-16T20:21:21.803Z,5.20
2022-08-16T20:23:48.337Z,4.93
2022-08-16T20:26:15.333Z,5.38
2022-08-16T20:28:53.453Z,4.68
2022-08-16T20:31:24.683Z,4.65
2022-08-16T20:33:51.763Z,4.45
2022-08-16T20:36:18.332Z,4.75
2022-08-16T20:38:47.207Z,4.80
2022-08-16T20:41:15.479Z,5.38
2022-08-16T20:43:42.046Z,5.05
2022-08-16T20:46:08.562Z,4.70
2022-08-16T20:48:35.089Z,4.90
2022-08-16T20:51:01.619Z,4.80
2022-08-16T20:53:28.129Z,4.57
2022-08-16T20:55:54.839Z,5.07
2022-08-16T20:58:21.420Z,4.93
2022-08-16T21:00:48.128Z,4.63
2022-08-16T21:03:14.928Z,4.65
2022-08-16T21:05:41.794Z,5.00
2022-08-16T21:08:26.836Z,4.63
2022-08-16T21:10:56.443Z,5.05
2022-08-16T21:13:25.330Z,4.78
2022-08-16T21:15:52.064Z,5.40
2022-08-16T21:18:18.604Z,5.50
2022-08-16T21:20:45.158Z,4.75
2022-08-16T21:23:11.842Z,4.93
2022-08-16T21:25:42.918Z,5.25
2022-08-16T21:28:41.910Z,5.25
2022-08-16T21:31:14.703Z,5.15
2022-08-16T21:36:08.770Z,5.68
2022-08-16T21:38:35.590Z,5.43
2022-08-16T21:41:03.632Z,5.18
2022-08-16T21:43:32.774Z,4.72
2022-08-16T21:46:01.411Z,5.55
2022-08-16T21:48:34.768Z,5.32
2022-08-16T21:51:10.108Z,5.03
2022-08-16T21:53:36.833Z,5.30
2022-08-16T21:56:05.714Z,5.57
2022-08-16T21:58:32.470Z,5.03
2022-08-16T22:00:59.293Z,4.63
2022-08-16T22:03:25.940Z,4.95
2022-08-16T22:06:12.242Z,5.47
2022-08-16T22:08:50.422Z,5.40
2022-08-16T22:11:21.860Z,5.07
2022-08-16T22:13:51.218Z,5.40
2022-08-16T22:16:24.465Z,5.03
2022-08-16T22:18:52.192Z,5.30
2022-08-16T22:21:19.129Z,5.25
2022-08-16T22:23:45.688Z,5.07
2022-08-16T22:26:29.853Z,5.80
2022-08-16T22:29:09.586Z,5.10
2022-08-16T22:31:38.376Z,5.25
2022-08-16T22:34:05.466Z,5.65
2022-08-16T22:36:33.284Z,5.70
2022-08-16T22:39:03.406Z,5.57
2022-08-16T22:41:32.072Z,6.18
2022-08-16T22:43:59.682Z,6.22
2022-08-16T22:46:26.365Z,6.53
2022-08-16T22:48:52.916Z,5.97
2022-08-16T22:51:20.904Z,5.80
2022-08-16T22:53:47.761Z,5.70
2022-08-16T22:56:15.604Z,6.40
2022-08-16T22:58:42.320Z,5.63
2022-08-16T23:01:10.019Z,5.97
2022-08-16T23:03:37.470Z,6.32
2022-08-16T23:06:05.957Z,5.40
2022-08-16T23:08:39.315Z,5.55
2022-08-16T23:11:12.864Z,6.07
2022-08-16T23:13:50.070Z,6.00
2022-08-16T23:16:33.162Z,6.00
2022-08-16T23:19:03.319Z,6.45
2022-08-16T23:21:30.429Z,5.88
2022-08-16T23:23:57.014Z,5.70
2022-08-16T23:26:45.256Z,6.03
2022-08-16T23:29:22.310Z,6.22
2022-08-16T23:31:53.449Z,6.15
2022-08-16T23:34:21.367Z,5.72
2022-08-16T23:36:47.921Z,6.20
2022-08-16T23:39:14.473Z,5.38
2022-08-16T23:41:41.049Z,5.90
2022-08-16T23:44:58.737Z,5.93
2022-08-16T23:46:55.082Z,5.80
2022-08-16T23:49:57.072Z,6.15
2022-08-16T23:52:09.421Z,6.55
2022-08-16T23:54:36.204Z,7.10
2022-08-16T23:57:02.810Z,6.45
2022-08-16T23:59:29.565Z,6.15
